Time;durP1;ratioP1;P1;durP2;ratioP2;P2;SDS_P1;SDS_P2;PMS_P1;PMS_P2;Temp;Humidity;BMP_temperature;BMP_pressure;BME280_temperature;BME280_humidity;BME280_pressure;Samples;Min_cycle;Max_cycle;Signal;HPM_P1;HPM_P2
2023/04/01 00:01:14;;;;;;;11.82;5.07;;;5.40;99.90;;;3.79;100.00;99416.53;4930618;28;20224;-81
2023/04/01 00:03:40;;;;;;;6.07;3.72;;;5.40;99.90;;;3.72;100.00;99412.50;4911766;28;20073;-82
2023/04/01 00:06:06;;;;;;;10.02;4.70;;;5.40;99.90;;;3.66;100.00;99436.16;4902869;28;20042;-80
2023/04/01 00:08:41;;;;;;;9.80;5.45;;;5.40;99.90;;;3.73;100.00;99426.34;4926881;28;20034;-81
2023/04/01 00:11:07;;;;;;;17.67;7.10;;;5.40;99.90;;;3.76;100.00;99421.88;4891887;28;20378;-80
2023/04/01 00:13:33;;;;;;;12.48;4.07;;;5.40;99.90;;;3.77;100.00;99430.53;4919927;28;20652;-80
2023/04/01 00:16:06;;;;;;;13.00;5.88;;;5.40;99.90;;;3.74;100.00;99428.03;4945486;28;20049;-81
2023/04/01 00:18:32;;;;;;;14.05;5.78;;;5.40;99.90;;;3.77;100.00;99423.56;4953280;28;20058;-81
2023/04/01 00:20:58;;;;;;;15.38;6.65;;;5.40;99.90;;;3.85;100.00;99418.91;4932418;28;20118;-80
2023/04/01 00:23:26;;;;;;;16.48;6.00;;;5.50;99.90;;;3.83;100.00;99428.53;4950452;28;20034;-80
2023/04/01 00:25:54;;;;;;;10.27;4.35;;;5.50;99.90;;;3.80;100.00;99438.22;4911811;28;20057;-81
2023/04/01 00:28:21;;;;;;;7.78;3.67;;;5.30;99.90;;;3.63;100.00;99436.28;4945497;28;20041;-82
2023/04/01 00:30:47;;;;;;;14.15;4.40;;;5.30;99.90;;;3.62;100.00;99432.81;4907091;28;20607;-80
2023/04/01 00:33:14;;;;;;;13.27;5.10;;;5.20;99.90;;;3.58;100.00;99428.63;4939545;28;20058;-80
2023/04/01 00:35:40;;;;;;;9.77;3.15;;;5.20;99.90;;;3.57;100.00;99426.97;4979112;28;20514;-82
2023/04/01 00:38:06;;;;;;;9.57;4.47;;;5.20;99.90;;;3.59;100.00;99419.09;4927675;28;20395;-80
2023/04/01 00:40:39;;;;;;;12.00;5.40;;;5.20;99.90;;;3.60;100.00;99428.59;4938379;28;20689;-81
2023/04/01 00:43:20;;;;;;;9.23;4.70;;;5.30;99.90;;;3.64;100.00;99440.56;4915022;28;20109;-80
2023/04/01 00:45:48;;;;;;;18.98;5.50;;;6.30;99.90;;;3.62;100.00;99437.19;4917683;28;20552;-82
2023/04/01 00:48:25;;;;;;;9.55;5.20;;;5.20;99.90;;;3.56;100.00;99429.59;4923223;28;20105;-80
2023/04/01 00:51:07;;;;;;;22.13;6.70;;;5.20;99.90;;;3.61;100.00;99427.69;4922602;28;20044;-82
2023/04/01 00:53:40;;;;;;;9.32;3.90;;;5.10;99.90;;;3.51;100.00;99437.59;4919639;28;20682;-81
2023/04/01 00:56:20;;;;;;;16.15;3.03;;;5.10;99.90;;;3.42;100.00;99438.78;4915366;28;20043;-81
2023/04/01 00:59:08;;;;;;;9.32;3.97;;;5.10;99.90;;;3.37;100.00;99430.31;4933089;28;20093;-81
2023/04/01 01:01:42;;;;;;;5.97;2.38;;;5.10;99.90;;;3.36;100.00;99440.78;4941745;28;20096;-80
2023/04/01 01:04:38;;;;;;;13.95;2.47;;;5.00;99.90;;;3.37;100.00;99442.47;4962755;28;20033;-83
2023/04/01 01:07:35;;;;;;;6.07;3.08;;;5.00;99.90;;;3.30;100.00;99444.44;4933654;28;20030;-81
2023/04/01 01:10:13;;;;;;;5.35;2.95;;;5.00;99.90;;;3.26;100.00;99438.53;4957716;28;20131;-82
2023/04/01 01:13:21;;;;;;;11.50;3.80;;;5.00;99.90;;;3.31;100.00;99440.13;4964117;28;20045;-81
2023/04/01 01:16:24;;;;;;;5.03;2.47;;;4.90;99.90;;;3.29;100.00;99447.97;4866372;29;20032;-81
2023/04/01 01:19:19;;;;;;;4.85;2.38;;;4.90;99.90;;;3.22;100.00;99442.16;4870664;28;20027;-83
2023/04/01 01:22:21;;;;;;;12.68;4.30;;;4.90;99.90;;;3.28;100.00;99452.34;4934113;28;20031;-80
2023/04/01 01:25:12;;;;;;;7.38;2.30;;;4.90;99.90;;;3.25;100.00;99442.03;4968999;28;20425;-81
2023/04/01 01:27:50;;;;;;;15.45;6.20;;;4.90;99.90;;;3.38;100.00;99458.03;4945502;28;20061;-82
2023/04/01 01:30:45;;;;;;;15.80;6.82;;;4.90;99.90;;;3.32;100.00;99463.47;4927983;28;20030;-80
2023/04/01 01:33:41;;;;;;;7.07;2.67;;;4.90;99.90;;;3.16;100.00;99470.16;4954897;28;20407;-84
2023/04/01 01:36:13;;;;;;;16.90;6.30;;;4.80;99.90;;;3.23;100.00;99453.41;4958124;28;20026;-81
2023/04/01 01:38:48;;;;;;;11.90;5.07;;;4.90;99.90;;;3.23;100.00;99456.00;4919457;28;20097;-81
2023/04/01 01:41:17;;;;;;;6.78;3.63;;;4.80;99.90;;;3.16;100.00;99459.75;4907784;28;20541;-80
2023/04/01 01:43:53;;;;;;;13.43;5.07;;;4.80;99.90;;;3.14;100.00;99471.94;4900275;28;20046;-81
2023/04/01 01:46:23;;;;;;;12.77;5.75;;;4.80;99.90;;;3.16;100.00;99462.34;4895234;28;20047;-81
2023/04/01 01:48:53;;;;;;;13.65;4.85;;;4.80;99.90;;;3.13;100.00;99462.44;4903274;28;20094;-82
2023/04/01 01:51:21;;;;;;;9.02;2.97;;;4.80;99.90;;;3.07;100.00;99456.56;4923636;28;20928;-82
2023/04/01 01:53:47;;;;;;;12.23;4.75;;;4.80;99.90;;;3.13;100.00;99467.63;4920821;28;20113;-81
2023/04/01 01:56:13;;;;;;;19.80;6.40;;;4.80;99.90;;;3.15;100.00;99465.81;4942082;28;20125;-80
2023/04/01 01:58:50;;;;;;;9.35;3.60;;;4.70;99.90;;;3.13;100.00;99462.44;4935602;28;20118;-81
2023/04/01 02:01:30;;;;;;;19.42;7.60;;;4.80;99.90;;;3.17;100.00;99470.06;4945438;28;20038;-80
2023/04/01 02:03:57;;;;;;;16.67;6.60;;;4.80;99.90;;;3.08;100.00;99462.59;4929141;28;20099;-80
2023/04/01 02:06:37;;;;;;;13.20;5.47;;;4.70;99.90;;;3.06;100.00;99462.66;4895661;28;20065;-82
2023/04/01 02:09:10;;;;;;;26.42;8.40;;;4.70;99.90;;;3.07;100.00;99459.16;4920102;28;20027;-82
2023/04/01 02:12:05;;;;;;;11.32;5.30;;;4.70;99.90;;;2.96;100.00;99471.72;4935957;28;20042;-81
2023/04/01 02:15:07;;;;;;;22.35;9.93;;;4.60;99.90;;;2.99;100.00;99478.53;4932919;28;20066;-81
2023/04/01 02:17:43;;;;;;;16.92;7.68;;;4.70;99.90;;;2.96;100.00;99463.03;4928068;28;20050;-81
2023/04/01 02:20:23;;;;;;;31.77;8.55;;;4.60;99.90;;;2.97;100.00;99467.34;4918645;28;20388;-82
2023/04/01 02:23:02;;;;;;;19.65;8.13;;;4.70;99.90;;;2.98;100.00;99497.63;4941010;28;20031;-82
2023/04/01 02:25:34;;;;;;;23.52;8.15;;;4.60;99.90;;;2.98;100.00;99479.44;4945697;28;20038;-81
2023/04/01 02:28:06;;;;;;;10.18;5.15;;;4.60;99.90;;;2.86;100.00;99472.94;4944650;28;20101;-82
2023/04/01 02:30:36;;;;;;;18.90;7.75;;;4.60;99.90;;;2.93;100.00;99478.75;4906064;28;20034;-82
2023/04/01 02:33:13;;;;;;;14.30;6.53;;;4.60;99.90;;;2.94;100.00;99493.44;4939618;28;20031;-81
2023/04/01 02:35:39;;;;;;;10.23;4.80;;;4.50;99.90;;;2.77;100.00;99483.66;4925154;28;20118;-82
2023/04/01 02:38:15;;;;;;;12.95;5.10;;;4.50;99.90;;;2.83;100.00;99481.69;4939907;28;20173;-82
2023/04/01 02:40:58;;;;;;;26.33;9.07;;;4.50;99.90;;;2.91;100.00;99494.41;4926056;28;20145;-83
2023/04/01 02:43:24;;;;;;;21.00;9.80;;;4.50;99.90;;;2.91;100.00;99491.81;4929022;28;24395;-80
2023/04/01 02:45:50;;;;;;;14.48;6.95;;;4.50;99.90;;;2.84;100.00;99503.31;4910667;28;20038;-82
2023/04/01 02:48:23;;;;;;;31.15;9.73;;;4.60;99.90;;;2.92;100.00;99503.91;4947324;28;20465;-82
2023/04/01 02:50:51;;;;;;;27.95;9.50;;;;;;;2.98;100.00;99498.50;4909686;28;20065;-82
2023/04/01 02:53:17;;;;;;;31.58;12.25;;;4.60;99.90;;;2.95;100.00;99506.41;4929306;28;20099;-81
2023/04/01 02:55:43;;;;;;;30.58;11.35;;;4.60;99.90;;;2.95;100.00;99524.59;4947048;28;20039;-81
2023/04/01 02:58:13;;;;;;;36.17;13.27;;;4.60;99.90;;;2.98;100.00;99514.09;4921229;28;20083;-82
2023/04/01 03:00:39;;;;;;;30.33;10.73;;;4.60;99.90;;;2.96;100.00;99515.03;4945855;28;20122;-83
2023/04/01 03:03:05;;;;;;;46.53;14.75;;;4.70;99.90;;;3.03;100.00;99522.59;4922966;28;20495;-81
2023/04/01 03:05:31;;;;;;;18.30;8.52;;;4.60;99.90;;;2.96;100.00;99515.91;4957625;28;20034;-82
2023/04/01 03:07:57;;;;;;;24.52;8.68;;;4.70;99.90;;;2.96;100.00;99520.25;4959083;28;20180;-81
2023/04/01 03:10:22;;;;;;;22.27;9.73;;;4.60;99.90;;;2.95;100.00;99528.97;4912627;28;20042;-82
2023/04/01 03:15:18;;;;;;;11.50;5.50;;;4.60;99.90;;;2.90;100.00;99523.06;5021868;22;20118;-82
2023/04/01 03:17:44;;;;;;;21.80;7.05;;;4.60;99.90;;;2.94;100.00;99535.91;4994264;28;20299;-81
2023/04/01 03:20:11;;;;;;;33.78;12.10;;;4.60;99.90;;;2.96;100.00;99538.44;4980282;28;20043;-83
2023/04/01 03:22:38;;;;;;;16.38;8.00;;;4.60;99.90;;;2.92;100.00;99535.13;4996569;28;20061;-82
2023/04/01 03:25:13;;;;;;;17.63;8.00;;;4.60;99.90;;;2.87;100.00;99539.59;4967242;28;20588;-83
2023/04/01 03:27:39;;;;;;;15.47;6.87;;;4.50;99.90;;;2.89;100.00;99561.19;4952234;28;20464;-82
2023/04/01 03:30:06;;;;;;;16.73;6.50;;;4.50;99.90;;;2.84;100.00;99545.75;4992875;28;20033;-83
2023/04/01 03:32:37;;;;;;;22.60;9.48;;;4.60;99.90;;;2.93;100.00;99544.59;4954373;28;20440;-82
2023/04/01 03:35:04;;;;;;;27.55;11.15;;;4.60;99.90;;;2.91;100.00;99546.41;4978247;28;20129;-83
2023/04/01 03:37:30;;;;;;;18.80;8.98;;;4.60;99.90;;;2.94;100.00;99548.03;4946577;28;20516;-82
2023/04/01 03:39:56;;;;;;;21.10;7.38;;;4.50;99.90;;;2.85;100.00;99549.22;4945903;28;20041;-81
2023/04/01 03:42:22;;;;;;;15.85;7.32;;;4.50;99.90;;;2.86;100.00;99554.38;4951320;28;20040;-82
2023/04/01 03:44:57;;;;;;;16.35;7.00;;;4.50;99.90;;;2.83;100.00;99562.28;4959665;28;20024;-82
2023/04/01 03:47:23;;;;;;;19.85;6.18;;;4.50;99.90;;;2.84;100.00;99556.16;4965502;28;20060;-83
2023/04/01 03:49:48;;;;;;;14.55;5.88;;;4.50;99.90;;;2.78;100.00;99552.91;4963913;28;20042;-81
2023/04/01 03:52:14;;;;;;;19.65;6.93;;;4.50;99.90;;;2.78;100.00;99566.75;5006965;28;20076;-81
2023/04/01 03:54:47;;;;;;;21.63;8.82;;;4.50;99.90;;;2.81;100.00;99561.47;4973018;23;20042;-80
2023/04/01 03:57:14;;;;;;;29.10;11.75;;;4.50;99.90;;;2.88;100.00;99567.31;4964304;28;20054;-83
2023/04/01 03:59:39;;;;;;;26.10;7.32;;;3.90;99.90;;;2.84;100.00;99568.31;4965132;28;20030;-81
2023/04/01 04:02:05;;;;;;;34.25;11.63;;;5.10;99.90;;;2.86;100.00;99587.31;4946626;28;20180;-83
2023/04/01 04:04:41;;;;;;;29.08;12.02;;;4.50;99.90;;;2.87;100.00;99581.22;4969385;28;20028;-83
2023/04/01 04:07:07;;;;;;;21.33;8.20;;;4.50;99.90;;;2.83;100.00;99601.28;4990631;28;20029;-81
2023/04/01 04:09:33;;;;;;;19.70;7.53;;;4.50;99.90;;;2.82;100.00;99590.91;4956691;28;20029;-82
2023/04/01 04:12:00;;;;;;;39.00;15.52;;;4.60;99.90;;;2.92;100.00;99589.72;4969222;28;20082;-81
2023/04/01 04:14:29;;;;;;;27.60;11.20;;;4.50;99.90;;;2.93;100.00;99587.97;4988138;28;20043;-80
2023/04/01 04:16:55;;;;;;;29.30;12.93;;;4.60;99.90;;;2.94;100.00;99595.72;4963003;28;20526;-83
2023/04/01 04:19:20;;;;;;;22.40;8.70;;;4.60;99.90;;;2.90;100.00;99601.91;4960667;28;20100;-81
2023/04/01 04:21:46;;;;;;;26.63;11.02;;;4.50;99.90;;;2.86;100.00;99595.13;4954956;28;20053;-81
2023/04/01 04:24:12;;;;;;;21.00;9.50;;;4.50;99.90;;;2.84;100.00;99602.13;4963831;28;20093;-83
2023/04/01 04:26:38;;;;;;;23.95;10.10;;;4.50;99.90;;;2.85;100.00;99606.41;4950075;28;20477;-82
2023/04/01 04:29:12;;;;;;;31.83;12.45;;;4.50;99.90;;;2.89;100.00;99610.59;4957891;28;20029;-82
2023/04/01 04:31:38;;;;;;;19.25;7.35;;;4.50;99.90;;;2.81;100.00;99631.69;4970198;28;20034;-82
2023/04/01 04:34:04;;;;;;;19.17;8.40;;;4.50;99.90;;;2.80;100.00;99616.13;4945134;28;20402;-81
2023/04/01 04:36:30;;;;;;;20.20;7.47;;;4.50;99.90;;;2.83;100.00;99626.41;4983404;28;20048;-83
2023/04/01 04:39:03;;;;;;;26.75;11.82;;;4.50;99.90;;;2.84;100.00;99623.75;4979932;28;20051;-80
2023/04/01 04:41:28;;;;;;;45.95;15.20;;;4.50;99.90;;;2.92;100.00;99625.28;4924162;28;20034;-81
2023/04/01 04:43:56;;;;;;;28.30;11.18;;;4.60;99.90;;;2.89;100.00;99631.41;4962238;28;20488;-80
2023/04/01 04:46:23;;;;;;;37.50;12.70;;;4.50;99.90;;;2.85;100.00;99625.47;4936245;28;20041;-83
2023/04/01 04:48:55;;;;;;;27.15;10.65;;;4.50;99.90;;;2.83;100.00;99629.88;4938503;28;20470;-83
2023/04/01 04:51:21;;;;;;;23.65;9.07;;;4.60;99.90;;;2.85;100.00;99629.81;4977509;28;20044;-82
2023/04/01 04:53:48;;;;;;;16.70;6.97;;;4.50;99.90;;;2.85;100.00;99632.41;4968161;28;20049;-82
2023/04/01 04:56:25;;;;;;;17.02;7.55;;;4.50;99.90;;;2.82;100.00;99653.31;4950964;28;20042;-81
2023/04/01 04:58:52;;;;;;;20.55;7.97;;;4.50;99.90;;;2.84;100.00;99638.53;4983074;28;20068;-82
2023/04/01 05:01:18;;;;;;;25.70;9.63;;;4.60;99.90;;;2.88;100.00;99646.16;4957123;28;20045;-81
2023/04/01 05:03:49;;;;;;;28.55;9.15;;;4.50;99.90;;;2.88;100.00;99642.72;4958005;28;20112;-82
2023/04/01 05:06:17;;;;;;;18.60;6.63;;;4.50;99.90;;;2.83;100.00;99645.47;4970261;28;20029;-81
2023/04/01 05:08:44;;;;;;;22.05;7.15;;;4.60;99.90;;;2.88;100.00;99648.75;4958410;28;20033;-81
2023/04/01 05:11:19;;;;;;;34.75;11.07;;;4.60;99.90;;;2.99;100.00;99651.03;4941282;28;20110;-82
2023/04/01 05:13:46;;;;;;;38.38;13.65;;;4.70;99.90;;;3.06;100.00;99660.31;4968529;28;20040;-81
2023/04/01 05:16:21;;;;;;;36.08;11.95;;;4.60;99.90;;;3.01;100.00;99654.41;4961262;28;20033;-81
2023/04/01 05:18:47;;;;;;;21.35;9.25;;;4.60;99.90;;;2.96;100.00;99658.94;4975913;28;20256;-80
2023/04/01 05:21:14;;;;;;;14.52;6.63;;;4.70;99.90;;;2.93;100.00;99659.00;4952800;28;24999;-82
2023/04/01 05:23:41;;;;;;;26.75;10.77;;;4.60;99.90;;;2.92;100.00;99667.72;4970381;28;20114;-83
2023/04/01 05:26:13;;;;;;;19.60;9.00;;;;;;;2.99;100.00;99670.97;4922352;28;20060;-81
2023/04/01 05:28:40;;;;;;;16.52;6.28;;;4.60;99.90;;;2.90;100.00;99666.94;4949826;28;20052;-80
2023/04/01 05:31:07;;;;;;;18.60;6.22;;;4.50;99.90;;;2.87;100.00;99665.28;4955910;28;20034;-80
2023/04/01 05:33:33;;;;;;;21.75;8.20;;;4.60;99.90;;;2.95;100.00;99678.03;4948697;28;20072;-81
2023/04/01 05:36:14;;;;;;;16.55;5.53;;;4.60;99.90;;;2.88;100.00;99673.94;4948180;28;20073;-80
2023/04/01 05:38:50;;;;;;;13.38;4.68;;;4.50;99.90;;;2.81;100.00;99675.03;4969977;28;20038;-82
2023/04/01 05:41:16;;;;;;;13.50;4.82;;;4.50;99.90;;;2.82;100.00;99676.72;4949917;28;20042;-79
2023/04/01 05:43:42;;;;;;;10.35;4.22;;;4.60;99.90;;;2.85;100.00;99682.69;4924541;28;20030;-83
2023/04/01 05:46:13;;;;;;;18.27;7.28;;;4.50;99.90;;;2.86;100.00;99686.97;4945498;28;20036;-83
2023/04/01 05:48:39;;;;;;;17.95;7.50;;;4.50;99.90;;;2.87;100.00;99695.59;4960293;28;20032;-83
2023/04/01 05:51:05;;;;;;;14.50;6.10;;;4.60;99.90;;;2.94;100.00;99693.66;4926716;28;20046;-81
2023/04/01 05:53:30;;;;;;;16.00;5.57;;;4.60;99.90;;;2.88;100.00;99689.53;4934224;28;20080;-83
2023/04/01 05:55:56;;;;;;;11.13;4.22;;;4.60;99.90;;;2.82;100.00;99694.91;4957233;28;20041;-80
2023/04/01 05:58:22;;;;;;;18.08;6.35;;;4.60;99.90;;;2.93;100.00;99700.63;4972251;28;20033;-81
2023/04/01 06:00:59;;;;;;;8.95;3.40;;;4.50;99.90;;;2.83;100.00;99697.47;4975521;28;20110;-82
2023/04/01 06:03:25;;;;;;;10.85;4.25;;;4.50;99.90;;;2.84;100.00;99699.16;4996168;28;20150;-80
2023/04/01 06:05:58;;;;;;;8.20;3.70;;;4.50;99.90;;;2.81;100.00;99699.28;4973394;28;20049;-82
2023/04/01 06:08:25;;;;;;;11.65;4.55;;;4.50;99.90;;;2.79;100.00;99697.63;4983073;28;20042;-80
2023/04/01 06:11:32;;;;;;;8.10;3.70;;;4.50;99.90;;;2.78;100.00;99696.75;4964317;28;20033;-82
2023/04/01 06:14:30;;;;;;;14.68;4.57;;;4.40;99.90;;;2.75;100.00;99714.22;4998097;28;20037;-82
2023/04/01 06:17:10;;;;;;;18.80;4.57;;;4.40;99.90;;;2.72;100.00;99698.69;4962105;28;20033;-80
2023/04/01 06:20:06;;;;;;;7.60;3.75;;;4.40;99.90;;;2.73;100.00;99713.41;4949167;28;20107;-83
2023/04/01 06:22:52;;;;;;;17.50;5.90;;;4.40;99.90;;;2.74;100.00;99720.28;4987177;28;20037;-84
2023/04/01 06:25:41;;;;;;;14.35;5.43;;;4.40;99.90;;;2.72;100.00;99722.09;4974181;28;20046;-83
2023/04/01 06:29:03;;;;;;;16.20;6.07;;;4.40;99.90;;;2.79;100.00;99721.03;4972436;28;20526;-80
2023/04/01 06:32:15;;;;;;;12.88;5.93;;;4.40;99.90;;;2.76;100.00;99729.75;4999056;28;20048;-81
2023/04/01 06:35:16;;;;;;;12.25;5.00;;;4.50;99.90;;;2.77;100.00;99728.00;4994444;28;20095;-81
2023/04/01 06:38:30;;;;;;;23.42;7.45;;;4.40;99.90;;;2.78;100.00;99729.69;5006031;28;20222;-83
2023/04/01 06:41:42;;;;;;;20.65;6.97;;;4.40;99.90;;;2.73;100.00;99734.19;5000423;28;20043;-80
2023/04/01 06:44:28;;;;;;;20.23;7.07;;;4.40;99.90;;;2.71;100.00;99747.22;4977568;28;20038;-86
2023/04/01 06:47:10;;;;;;;18.50;6.70;;;4.40;99.90;;;2.75;100.00;99740.22;4941935;28;20046;-82
2023/04/01 06:49:54;;;;;;;13.23;5.55;;;4.30;99.90;;;2.64;100.00;99745.72;4979715;28;20590;-83
2023/04/01 06:52:41;;;;;;;21.23;7.10;;;4.30;99.90;;;2.65;100.00;99756.06;4964332;28;20038;-82
2023/04/01 06:55:40;;;;;;;22.70;7.00;;;4.40;99.90;;;2.72;100.00;99754.16;4979791;28;20051;-81
2023/04/01 06:58:27;;;;;;;23.80;7.60;;;4.30;99.90;;;2.63;100.00;99750.03;4966652;28;20072;-81
2023/04/01 07:00:59;;;;;;;21.52;9.25;;;4.30;99.90;;;2.64;100.00;99762.16;4947661;28;20168;-82
2023/04/01 07:03:43;;;;;;;22.05;9.23;;;4.30;99.90;;;2.67;100.00;99763.81;4971601;28;20242;-83
2023/04/01 07:06:18;;;;;;;18.02;7.93;;;4.30;99.90;;;2.73;100.00;99758.44;4985562;28;20045;-84
2023/04/01 07:08:45;;;;;;;13.23;6.13;;;4.40;99.90;;;2.75;100.00;99764.44;4960539;28;20029;-82
2023/04/01 07:11:30;;;;;;;17.85;6.43;;;4.40;99.90;;;2.80;100.00;99772.09;4960619;28;20190;-82
2023/04/01 07:14:36;;;;;;;15.38;7.35;;;4.40;99.90;;;2.83;100.00;99767.66;4967012;28;20057;-83
2023/04/01 07:17:30;;;;;;;14.70;6.57;;;4.40;99.90;;;2.79;100.00;99768.66;4968219;28;20133;-83
2023/04/01 07:20:30;;;;;;;25.67;10.82;;;4.40;99.90;;;2.87;100.00;99784.88;4981896;28;20033;-81
2023/04/01 07:26:27;;;;;;;24.67;9.50;;;4.60;99.90;;;2.91;100.00;99780.44;4965883;28;20047;-82
2023/04/01 07:32:19;;;;;;;23.60;10.13;;;;;;;2.91;100.00;99798.63;4946798;22;20051;-85
2023/04/01 07:35:24;;;;;;;14.07;6.05;;;;;;;2.75;100.00;99787.00;4859309;28;20079;-86
2023/04/01 07:38:35;;;;;;;22.13;7.15;;;4.40;99.90;;;2.63;100.00;99803.78;4871574;28;20051;-85
2023/04/01 07:41:22;;;;;;;19.67;6.30;;;5.30;99.90;;;2.73;100.00;99830.38;4873815;28;20090;-82
2023/04/01 07:44:37;;;;;;;14.90;6.88;;;4.40;99.90;;;2.72;100.00;99811.34;4939375;28;20053;-81
2023/04/01 07:47:56;;;;;;;25.90;8.45;;;4.40;99.90;;;2.72;100.00;99829.53;4958528;28;20062;-80
2023/04/01 07:50:27;;;;;;;26.02;9.55;;;4.40;99.90;;;2.69;100.00;99823.56;4951651;28;20045;-81
2023/04/01 07:53:06;;;;;;;23.02;8.60;;;4.30;99.90;;;2.53;100.00;99830.94;4935823;28;20047;-79
2023/04/01 07:55:38;;;;;;;18.55;6.97;;;4.30;99.90;;;2.53;100.00;99831.81;4970709;28;20046;-80
2023/04/01 07:58:17;;;;;;;19.35;7.25;;;4.30;99.90;;;2.59;100.00;99838.56;4927859;28;20138;-81
2023/04/01 08:00:57;;;;;;;21.88;8.07;;;4.30;99.90;;;2.61;100.00;99837.63;4928386;28;20025;-81
2023/04/01 08:04:02;;;;;;;34.55;12.00;;;4.30;99.90;;;2.62;100.00;99844.53;4944954;28;20038;-80
2023/04/01 08:07:02;;;;;;;18.17;5.63;;;4.30;99.90;;;2.57;100.00;99849.00;4961358;28;20042;-81
2023/04/01 08:10:08;;;;;;;13.90;6.05;;;4.30;99.90;;;2.59;100.00;99847.22;4971590;28;20044;-81
2023/04/01 08:13:14;;;;;;;18.92;8.98;;;4.30;99.90;;;2.69;100.00;99860.81;4971322;28;20493;-79
2023/04/01 08:16:24;;;;;;;20.70;6.25;;;4.20;99.90;;;2.55;100.00;99862.91;4958286;28;20069;-81
2023/04/01 08:19:26;;;;;;;14.65;5.30;;;4.30;99.90;;;2.60;100.00;99861.91;4980523;28;20050;-80
2023/04/01 08:22:04;;;;;;;11.95;7.78;;;4.30;99.90;;;2.64;100.00;99866.13;4950169;28;21036;-81
2023/04/01 08:24:46;;;;;;;13.70;5.28;;;4.30;99.90;;;2.66;100.00;99879.09;4953948;28;20438;-82
2023/04/01 08:27:31;;;;;;;12.35;5.53;;;4.30;99.90;;;2.69;100.00;99872.94;4941757;28;20434;-80
2023/04/01 08:30:35;;;;;;;7.63;3.97;;;4.40;99.90;;;2.70;100.00;99885.91;4946584;28;20038;-78
2023/04/01 08:33:17;;;;;;;7.00;3.28;;;4.40;99.90;;;2.68;100.00;99887.72;4943140;28;20044;-79
2023/04/01 08:35:57;;;;;;;12.35;4.97;;;4.40;99.90;;;2.74;100.00;99892.72;4963927;28;20038;-81
2023/04/01 08:38:50;;;;;;;13.20;5.60;;;4.50;99.90;;;2.76;100.00;99888.31;4947921;28;20047;-81
2023/04/01 08:41:21;;;;;;;14.07;5.72;;;4.50;99.90;;;2.75;100.00;99885.78;4962843;28;20124;-81
2023/04/01 08:44:43;;;;;;;23.17;7.90;;;4.50;99.90;;;2.72;100.00;99896.25;4948073;28;20034;-81
2023/04/01 08:47:38;;;;;;;27.90;8.40;;;4.40;99.90;;;2.72;100.00;99911.84;4965988;28;20804;-82
2023/04/01 08:50:21;;;;;;;14.88;5.57;;;4.40;99.90;;;2.66;100.00;99898.13;4958497;28;20713;-81
2023/04/01 08:53:30;;;;;;;20.80;6.78;;;4.40;99.90;;;2.73;100.00;99895.38;4987586;28;20128;-82
2023/04/01 08:56:18;;;;;;;17.65;6.45;;;4.40;99.90;;;2.71;100.00;99904.97;4939620;28;20045;-83
2023/04/01 08:59:09;;;;;;;19.00;6.43;;;4.40;99.90;;;2.75;100.00;99910.03;4980449;28;20033;-79
2023/04/01 09:02:07;;;;;;;13.18;5.78;;;4.30;99.90;;;2.61;100.00;99912.13;4995152;28;20088;-78
2023/04/01 09:05:15;;;;;;;19.58;6.68;;;4.30;99.90;;;2.70;100.00;99931.84;4962791;28;20042;-81
2023/04/01 09:08:29;;;;;;;13.05;5.40;;;4.40;99.90;;;2.72;100.00;99920.53;4994545;28;20460;-80
2023/04/01 09:11:46;;;;;;;16.55;5.93;;;4.40;99.90;;;2.81;100.00;99929.81;4953861;28;20502;-80
2023/04/01 09:15:12;;;;;;;14.57;6.20;;;4.50;99.90;;;2.79;100.00;99921.22;4979534;28;20052;-80
2023/04/01 09:18:35;;;;;;;13.80;5.28;;;4.50;99.90;;;2.73;100.00;99935.22;4991157;28;20149;-78
2023/04/01 09:21:18;;;;;;;13.50;5.10;;;4.40;99.90;;;2.74;100.00;99933.47;4965820;28;20037;-79
2023/04/01 09:24:31;;;;;;;15.88;5.00;;;4.50;99.90;;;2.82;100.00;99944.50;4961007;28;20053;-79
2023/04/01 09:27:43;;;;;;;13.82;5.55;;;4.50;99.90;;;2.90;100.00;99949.50;4968585;28;20093;-78
2023/04/01 09:31:07;;;;;;;15.43;4.93;;;4.60;99.90;;;2.84;100.00;99950.53;4999394;28;20095;-80
2023/04/01 09:34:46;;;;;;;15.05;5.47;;;4.50;99.90;;;2.73;100.00;99953.41;5005416;28;20033;-79
2023/04/01 09:37:52;;;;;;;17.27;7.20;;;4.50;99.90;;;2.94;100.00;99958.91;4896873;29;20067;-80
2023/04/01 09:40:42;;;;;;;13.27;4.75;;;4.60;99.90;;;2.86;100.00;99967.78;4885671;28;20512;-80
2023/04/01 09:43:54;;;;;;;11.00;4.68;;;4.50;99.90;;;2.78;100.00;99967.13;4945966;28;20030;-79
2023/04/01 09:47:10;;;;;;;12.82;4.93;;;4.50;99.90;;;2.74;100.00;99986.28;4969592;28;20045;-78
2023/04/01 09:50:32;;;;;;;14.30;5.40;;;4.40;99.90;;;2.76;100.00;99981.06;4996447;28;20068;-79
2023/04/01 09:54:15;;;;;;;15.38;4.43;;;4.40;99.90;;;2.75;100.00;99971.56;4991300;28;20124;-81
2023/04/01 09:57:20;;;;;;;13.77;5.60;;;4.30;99.90;;;2.69;100.00;99993.38;4969369;28;20051;-79
2023/04/01 10:00:19;;;;;;;13.93;5.13;;;4.40;99.90;;;2.70;100.00;99999.41;4989369;28;20037;-78
2023/04/01 10:03:15;;;;;;;11.27;4.72;;;4.40;99.90;;;2.61;100.00;99991.00;4971253;28;20077;-79
2023/04/01 10:06:15;;;;;;;16.20;4.43;;;4.30;99.90;;;2.60;100.00;100004.03;4971159;28;20129;-80
2023/04/01 10:09:21;;;;;;;21.67;6.95;;;4.30;99.90;;;2.75;100.00;100002.78;4993889;28;20490;-80
2023/04/01 10:12:47;;;;;;;15.38;4.93;;;4.40;99.90;;;2.69;100.00;100002.94;4974200;28;20053;-78
2023/04/01 10:16:11;;;;;;;15.73;5.13;;;4.40;99.90;;;2.69;100.00;100005.53;4980718;28;20038;-80
2023/04/01 10:19:25;;;;;;;12.70;4.68;;;4.40;99.90;;;2.72;100.00;100023.63;4987949;28;20585;-80
2023/04/01 10:22:19;;;;;;;9.43;4.00;;;4.40;99.90;;;2.62;100.00;100033.44;4980021;28;20068;-80
2023/04/01 10:25:15;;;;;;;13.15;5.05;;;4.30;99.90;;;2.70;100.00;100039.28;4980898;28;20414;-78
2023/04/01 10:28:02;;;;;;;19.48;4.63;;;4.40;99.90;;;2.74;100.00;100037.44;4943125;28;20525;-78
2023/04/01 10:31:22;;;;;;;11.80;4.95;;;4.40;99.90;;;2.73;100.00;100035.75;4969023;28;20072;-79
2023/04/01 10:34:26;;;;;;;14.95;4.70;;;4.40;99.90;;;2.79;100.00;100035.59;4883227;28;20043;-81
2023/04/01 10:37:14;;;;;;;12.88;4.10;;;4.50;99.90;;;2.83;100.00;100039.81;4901495;28;20063;-80
2023/04/01 10:40:25;;;;;;;15.98;5.63;;;4.60;99.90;;;3.01;100.00;100041.94;4934039;28;20108;-81
2023/04/01 10:43:23;;;;;;;18.02;6.55;;;4.70;99.90;;;3.21;100.00;100040.56;4918407;28;20031;-79
2023/04/01 10:46:25;;;;;;;13.90;5.15;;;4.70;99.90;;;3.15;100.00;100044.16;4970709;28;20037;-79
2023/04/01 10:49:40;;;;;;;14.60;4.70;;;4.80;99.90;;;3.25;100.00;100039.56;4962724;28;20029;-80
2023/04/01 10:52:51;;;;;;;23.23;5.50;;;4.90;99.90;;;3.34;100.00;100036.72;4973084;28;20133;-82
2023/04/01 10:55:25;;;;;;;18.33;4.70;;;5.00;99.90;;;3.26;100.00;100056.88;4986027;28;20042;-79
2023/04/01 10:58:27;;;;;;;12.63;3.83;;;4.90;99.90;;;3.33;100.00;100049.78;4945593;28;20902;-79
2023/04/01 11:01:08;;;;;;;16.70;5.72;;;4.90;99.90;;;3.31;100.00;100057.63;4976552;28;20033;-80
2023/04/01 11:04:04;;;;;;;12.75;4.35;;;4.90;99.90;;;3.23;100.00;100059.56;4965121;28;20037;-79
2023/04/01 11:06:54;;;;;;;18.35;4.25;;;4.90;99.90;;;3.26;100.00;100051.66;4955412;28;20104;-79
2023/04/01 11:10:02;;;;;;;9.70;3.65;;;4.90;99.90;;;3.25;100.00;100076.00;4994956;28;20045;-78
2023/04/01 11:12:42;;;;;;;;;;;4.90;99.90;;;3.35;100.00;100061.84;4959877;28;20096;-79
2023/04/01 11:15:39;;;;;;;15.82;4.85;;;4.90;99.90;;;3.16;100.00;100094.47;4980282;28;19924;-79
2023/04/01 11:18:42;;;;;;;19.67;5.45;;;4.80;99.90;;;3.23;100.00;100070.81;4944409;28;20046;-81
2023/04/01 11:21:40;;;;;;;16.17;4.80;;;4.90;99.90;;;3.28;100.00;100070.69;4932952;28;20104;-80
2023/04/01 11:24:31;;;;;;;35.10;5.00;;;4.90;99.90;;;3.25;100.00;100086.41;4940824;28;20052;-80
2023/04/01 11:27:27;;;;;;;14.57;5.65;;;4.80;99.90;;;3.20;100.00;100101.31;4930295;28;20062;-81
2023/04/01 11:30:10;;;;;;;10.75;4.30;;;4.80;99.90;;;3.04;100.00;100109.47;4972859;28;20053;-83
2023/04/01 11:33:30;;;;;;;17.02;4.60;;;4.80;99.90;;;3.13;100.00;100099.72;4959656;28;20500;-77
2023/04/01 11:36:59;;;;;;;16.10;4.38;;;4.80;99.90;;;3.17;100.00;100096.16;4876905;29;20509;-81